sensor_id;sensor_type;location;lat;lon;timestamp;temperature;humidity
3360;DHT22;1693;49.602;11.046;2023-03-07T00:00:21;3.20;99.90
3360;DHT22;1693;49.602;11.046;2023-03-07T00:02:51;3.20;99.90
3360;DHT22;1693;49.602;11.046;2023-03-07T00:05:18;3.20;99.90
3360;DHT22;1693;49.602;11.046;2023-03-07T00:07:45;3.20;99.90
3360;DHT22;1693;49.602;11.046;2023-03-07T00:10:12;3.20;99.90
3360;DHT22;1693;49.602;11.046;2023-03-07T00:12:39;3.20;99.90
3360;DHT22;1693;49.602;11.046;2023-03-07T00:15:07;3.20;99.90
3360;DHT22;1693;49.602;11.046;2023-03-07T00:17:35;3.20;99.90
3360;DHT22;1693;49.602;11.046;2023-03-07T00:20:05;3.20;99.90
3360;DHT22;1693;49.602;11.046;2023-03-07T00:22:33;3.20;99.90
3360;DHT22;1693;49.602;11.046;2023-03-07T00:25:00;3.20;99.90
3360;DHT22;1693;49.602;11.046;2023-03-07T00:27:29;3.20;99.90
3360;DHT22;1693;49.602;11.046;2023-03-07T00:29:57;3.20;99.90
3360;DHT22;1693;49.602;11.046;2023-03-07T00:32:25;3.10;99.90
3360;DHT22;1693;49.602;11.046;2023-03-07T00:34:52;3.20;99.90
3360;DHT22;1693;49.602;11.046;2023-03-07T00:37:20;3.10;99.90
3360;DHT22;1693;49.602;11.046;2023-03-07T00:39:47;3.20;99.90
3360;DHT22;1693;49.602;11.046;2023-03-07T00:42:14;3.20;99.90
3360;DHT22;1693;49.602;11.046;2023-03-07T00:44:42;3.20;99.90
3360;DHT22;1693;49.602;11.046;2023-03-07T00:47:09;3.10;99.90
3360;DHT22;1693;49.602;11.046;2023-03-07T00:49:36;3.10;99.90
3360;DHT22;1693;49.602;11.046;2023-03-07T00:52:03;3.10;99.90
3360;DHT22;1693;49.602;11.046;2023-03-07T00:54:32;3.10;99.90
3360;DHT22;1693;49.602;11.046;2023-03-07T00:56:59;3.10;99.90
3360;DHT22;1693;49.602;11.046;2023-03-07T00:59:25;3.10;99.90
3360;DHT22;1693;49.602;11.046;2023-03-07T01:01:53;3.10;99.90
3360;DHT22;1693;49.602;11.046;2023-03-07T01:04:20;3.10;99.90
3360;DHT22;1693;49.602;11.046;2023-03-07T01:06:47;3.10;99.90
3360;DHT22;1693;49.602;11.046;2023-03-07T01:09:15;3.10;99.90
3360;DHT22;1693;49.602;11.046;2023-03-07T01:11:43;3.10;99.90
3360;DHT22;1693;49.602;11.046;2023-03-07T01:14:11;3.10;99.90
3360;DHT22;1693;49.602;11.046;2023-03-07T01:16:37;3.10;99.90
3360;DHT22;1693;49.602;11.046;2023-03-07T01:19:06;3.10;99.90
3360;DHT22;1693;49.602;11.046;2023-03-07T01:21:35;3.10;99.90
3360;DHT22;1693;49.602;11.046;2023-03-07T01:24:02;3.00;99.90
3360;DHT22;1693;49.602;11.046;2023-03-07T01:26:30;3.10;99.90
3360;DHT22;1693;49.602;11.046;2023-03-07T01:29:01;3.00;99.90
3360;DHT22;1693;49.602;11.046;2023-03-07T01:31:29;3.10;99.90
3360;DHT22;1693;49.602;11.046;2023-03-07T01:33:58;3.10;99.90
3360;DHT22;1693;49.602;11.046;2023-03-07T01:36:27;3.10;99.90
3360;DHT22;1693;49.602;11.046;2023-03-07T01:38:56;3.10;99.90
3360;DHT22;1693;49.602;11.046;2023-03-07T01:41:24;3.10;99.90
3360;DHT22;1693;49.602;11.046;2023-03-07T01:43:54;3.10;99.90
3360;DHT22;1693;49.602;11.046;2023-03-07T01:46:47;3.00;99.90
3360;DHT22;1693;49.602;11.046;2023-03-07T01:49:23;3.00;99.90
3360;DHT22;1693;49.602;11.046;2023-03-07T01:51:55;3.00;99.90
3360;DHT22;1693;49.602;11.046;2023-03-07T01:54:24;3.10;99.90
3360;DHT22;1693;49.602;11.046;2023-03-07T01:56:52;3.10;99.90
3360;DHT22;1693;49.602;11.046;2023-03-07T01:59:24;3.10;99.90
3360;DHT22;1693;49.602;11.046;2023-03-07T02:01:57;3.10;99.90
3360;DHT22;1693;49.602;11.046;2023-03-07T02:04:31;3.10;99.90
3360;DHT22;1693;49.602;11.046;2023-03-07T02:06:59;3.10;99.90
3360;DHT22;1693;49.602;11.046;2023-03-07T02:09:28;3.10;99.90
3360;DHT22;1693;49.602;11.046;2023-03-07T02:11:56;3.10;99.90
3360;DHT22;1693;49.602;11.046;2023-03-07T02:14:25;3.10;99.90
3360;DHT22;1693;49.602;11.046;2023-03-07T02:16:52;3.10;99.90
3360;DHT22;1693;49.602;11.046;2023-03-07T02:19:44;3.10;99.90
3360;DHT22;1693;49.602;11.046;2023-03-07T02:22:14;3.10;99.90
3360;DHT22;1693;49.602;11.046;2023-03-07T02:24:47;3.10;99.90
3360;DHT22;1693;49.602;11.046;2023-03-07T02:27:18;3.10;99.90
3360;DHT22;1693;49.602;11.046;2023-03-07T02:29:45;3.10;99.90
3360;DHT22;1693;49.602;11.046;2023-03-07T02:32:13;3.10;99.90
3360;DHT22;1693;49.602;11.046;2023-03-07T02:34:40;3.00;99.90
3360;DHT22;1693;49.602;11.046;2023-03-07T02:37:10;3.10;99.90
3360;DHT22;1693;49.602;11.046;2023-03-07T02:39:41;3.10;99.90
3360;DHT22;1693;49.602;11.046;2023-03-07T02:42:11;3.10;99.90
3360;DHT22;1693;49.602;11.046;2023-03-07T02:44:43;3.10;99.90
3360;DHT22;1693;49.602;11.046;2023-03-07T02:47:10;3.10;99.90
3360;DHT22;1693;49.602;11.046;2023-03-07T02:49:37;3.20;99.90
3360;DHT22;1693;49.602;11.046;2023-03-07T02:52:05;3.10;99.90
3360;DHT22;1693;49.602;11.046;2023-03-07T02:54:32;3.10;99.90
3360;DHT22;1693;49.602;11.046;2023-03-07T02:56:59;3.00;99.90
3360;DHT22;1693;49.602;11.046;2023-03-07T02:59:26;3.00;99.90
3360;DHT22;1693;49.602;11.046;2023-03-07T03:01:55;2.90;99.90
3360;DHT22;1693;49.602;11.046;2023-03-07T03:04:22;2.80;99.90
3360;DHT22;1693;49.602;11.046;2023-03-07T03:06:50;2.90;99.90
3360;DHT22;1693;49.602;11.046;2023-03-07T03:09:17;2.90;99.90
3360;DHT22;1693;49.602;11.046;2023-03-07T03:11:44;2.90;99.90
3360;DHT22;1693;49.602;11.046;2023-03-07T03:14:11;2.90;99.90
3360;DHT22;1693;49.602;11.046;2023-03-07T03:16:38;2.80;99.90
3360;DHT22;1693;49.602;11.046;2023-03-07T03:19:07;2.80;99.90
3360;DHT22;1693;49.602;11.046;2023-03-07T03:21:35;2.80;99.90
3360;DHT22;1693;49.602;11.046;2023-03-07T03:24:04;2.70;99.90
3360;DHT22;1693;49.602;11.046;2023-03-07T03:26:32;2.70;99.90
3360;DHT22;1693;49.602;11.046;2023-03-07T03:28:59;2.60;99.90
3360;DHT22;1693;49.602;11.046;2023-03-07T03:31:26;2.50;99.90
3360;DHT22;1693;49.602;11.046;2023-03-07T03:33:55;2.40;99.90
3360;DHT22;1693;49.602;11.046;2023-03-07T03:36:24;2.40;99.90
3360;DHT22;1693;49.602;11.046;2023-03-07T03:38:52;2.30;99.90
3360;DHT22;1693;49.602;11.046;2023-03-07T03:41:19;2.40;99.90
3360;DHT22;1693;49.602;11.046;2023-03-07T03:43:46;2.30;99.90
3360;DHT22;1693;49.602;11.046;2023-03-07T03:46:13;2.40;99.90
3360;DHT22;1693;49.602;11.046;2023-03-07T03:48:41;2.40;99.90
3360;DHT22;1693;49.602;11.046;2023-03-07T03:51:11;2.40;99.90
3360;DHT22;1693;49.602;11.046;2023-03-07T03:53:41;2.30;99.90
3360;DHT22;1693;49.602;11.046;2023-03-07T03:56:10;2.30;99.90
3360;DHT22;1693;49.602;11.046;2023-03-07T03:58:37;2.30;99.90
3360;DHT22;1693;49.602;11.046;2023-03-07T04:01:06;2.20;99.90
3360;DHT22;1693;49.602;11.046;2023-03-07T04:03:35;2.20;99.90
3360;DHT22;1693;49.602;11.046;2023-03-07T04:06:03;2.20;99.90
3360;DHT22;1693;49.602;11.046;2023-03-07T04:08:32;2.20;99.90
3360;DHT22;1693;49.602;11.046;2023-03-07T04:11:00;2.20;99.90
3360;DHT22;1693;49.602;11.046;2023-03-07T04:13:29;2.20;99.90
3360;DHT22;1693;49.602;11.046;2023-03-07T04:15:56;2.20;99.90
3360;DHT22;1693;49.602;11.046;2023-03-07T04:18:24;2.20;99.90
3360;DHT22;1693;49.602;11.046;2023-03-07T04:20:51;2.20;99.90
3360;DHT22;1693;49.602;11.046;2023-03-07T04:23:19;2.20;99.90
3360;DHT22;1693;49.602;11.046;2023-03-07T04:25:47;2.10;99.90
3360;DHT22;1693;49.602;11.046;2023-03-07T04:28:16;2.20;99.90
3360;DHT22;1693;49.602;11.046;2023-03-07T04:30:43;2.20;99.90
3360;DHT22;1693;49.602;11.046;2023-03-07T04:33:11;2.20;99.90
3360;DHT22;1693;49.602;11.046;2023-03-07T04:35:38;2.20;99.90
3360;DHT22;1693;49.602;11.046;2023-03-07T04:38:06;2.20;99.90
3360;DHT22;1693;49.602;11.046;2023-03-07T04:40:33;2.20;99.90
3360;DHT22;1693;49.602;11.046;2023-03-07T04:43:00;2.20;99.90
3360;DHT22;1693;49.602;11.046;2023-03-07T04:45:31;2.20;99.90
3360;DHT22;1693;49.602;11.046;2023-03-07T04:47:59;2.20;99.90
3360;DHT22;1693;49.602;11.046;2023-03-07T04:50:27;2.20;99.90
3360;DHT22;1693;49.602;11.046;2023-03-07T04:52:54;2.30;99.90
3360;DHT22;1693;49.602;11.046;2023-03-07T04:55:21;2.40;99.90
3360;DHT22;1693;49.602;11.046;2023-03-07T04:57:48;2.40;99.90
3360;DHT22;1693;49.602;11.046;2023-03-07T05:00:17;2.30;99.90
3360;DHT22;1693;49.602;11.046;2023-03-07T05:02:46;2.40;99.90
3360;DHT22;1693;49.602;11.046;2023-03-07T05:05:14;2.40;99.90
3360;DHT22;1693;49.602;11.046;2023-03-07T05:07:42;2.40;99.90
3360;DHT22;1693;49.602;11.046;2023-03-07T05:10:10;2.40;99.90
3360;DHT22;1693;49.602;11.046;2023-03-07T05:12:38;2.40;99.90
3360;DHT22;1693;49.602;11.046;2023-03-07T05:15:07;2.40;99.90
3360;DHT22;1693;49.602;11.046;2023-03-07T05:17:35;2.40;99.90
3360;DHT22;1693;49.602;11.046;2023-03-07T05:20:05;2.40;99.90
3360;DHT22;1693;49.602;11.046;2023-03-07T05:22:34;2.30;99.90
3360;DHT22;1693;49.602;11.046;2023-03-07T05:25:02;2.30;99.90
3360;DHT22;1693;49.602;11.046;2023-03-07T05:27:29;2.30;99.90
3360;DHT22;1693;49.602;11.046;2023-03-07T05:29:57;2.30;99.90
3360;DHT22;1693;49.602;11.046;2023-03-07T05:32:24;2.30;99.90
3360;DHT22;1693;49.602;11.046;2023-03-07T05:34:51;2.30;99.90
3360;DHT22;1693;49.602;11.046;2023-03-07T05:37:20;2.30;99.90
3360;DHT22;1693;49.602;11.046;2023-03-07T05:39:47;2.30;99.90
3360;DHT22;1693;49.602;11.046;2023-03-07T05:42:14;2.30;99.90
3360;DHT22;1693;49.602;11.046;2023-03-07T05:44:41;2.30;99.90
3360;DHT22;1693;49.602;11.046;2023-03-07T05:47:08;2.40;99.90
3360;DHT22;1693;49.602;11.046;2023-03-07T05:49:35;2.40;99.90
3360;DHT22;1693;49.602;11.046;2023-03-07T05:52:03;2.40;99.90
3360;DHT22;1693;49.602;11.046;2023-03-07T05:54:31;2.50;99.90
3360;DHT22;1693;49.602;11.046;2023-03-07T05:56:58;2.50;99.90
3360;DHT22;1693;49.602;11.046;2023-03-07T05:59:25;2.50;99.90
3360;DHT22;1693;49.602;11.046;2023-03-07T06:01:52;2.50;99.90
3360;DHT22;1693;49.602;11.046;2023-03-07T06:04:19;2.60;99.90
3360;DHT22;1693;49.602;11.046;2023-03-07T06:06:48;2.60;99.90
3360;DHT22;1693;49.602;11.046;2023-03-07T06:09:15;2.60;99.90
3360;DHT22;1693;49.602;11.046;2023-03-07T06:11:43;2.70;99.90
3360;DHT22;1693;49.602;11.046;2023-03-07T06:14:10;2.70;99.90
3360;DHT22;1693;49.602;11.046;2023-03-07T06:16:37;2.70;99.90
3360;DHT22;1693;49.602;11.046;2023-03-07T06:19:04;2.70;99.90
3360;DHT22;1693;49.602;11.046;2023-03-07T06:21:31;2.80;99.90
3360;DHT22;1693;49.602;11.046;2023-03-07T06:23:58;2.80;99.90
3360;DHT22;1693;49.602;11.046;2023-03-07T06:26:25;2.80;99.90
3360;DHT22;1693;49.602;11.046;2023-03-07T06:28:54;2.80;99.90
3360;DHT22;1693;49.602;11.046;2023-03-07T06:31:24;2.80;99.90
3360;DHT22;1693;49.602;11.046;2023-03-07T06:33:51;2.80;99.90
3360;DHT22;1693;49.602;11.046;2023-03-07T06:36:20;2.90;99.90
3360;DHT22;1693;49.602;11.046;2023-03-07T06:38:49;2.90;99.90
3360;DHT22;1693;49.602;11.046;2023-03-07T06:41:17;3.00;99.90
3360;DHT22;1693;49.602;11.046;2023-03-07T06:43:50;3.00;99.90
3360;DHT22;1693;49.602;11.046;2023-03-07T06:46:20;3.00;99.90
3360;DHT22;1693;49.602;11.046;2023-03-07T06:48:47;3.00;99.90
3360;DHT22;1693;49.602;11.046;2023-03-07T06:51:16;3.10;99.90
3360;DHT22;1693;49.602;11.046;2023-03-07T06:53:46;3.10;99.90
3360;DHT22;1693;49.602;11.046;2023-03-07T06:56:15;3.10;99.90
3360;DHT22;1693;49.602;11.046;2023-03-07T06:58:42;3.10;99.90
3360;DHT22;1693;49.602;11.046;2023-03-07T07:01:15;3.20;99.90
3360;DHT22;1693;49.602;11.046;2023-03-07T07:03:48;3.30;99.90
3360;DHT22;1693;49.602;11.046;2023-03-07T07:06:20;3.20;99.90
3360;DHT22;1693;49.602;11.046;2023-03-07T07:08:53;3.40;99.90
3360;DHT22;1693;49.602;11.046;2023-03-07T07:11:22;3.30;99.90
3360;DHT22;1693;49.602;11.046;2023-03-07T07:13:51;3.40;99.90
3360;DHT22;1693;49.602;11.046;2023-03-07T07:16:22;3.50;99.90
3360;DHT22;1693;49.602;11.046;2023-03-07T07:22:21;3.60;99.90
3360;DHT22;1693;49.602;11.046;2023-03-07T07:24:48;3.60;99.90
3360;DHT22;1693;49.602;11.046;2023-03-07T07:27:15;3.70;99.90
3360;DHT22;1693;49.602;11.046;2023-03-07T07:29:42;3.70;99.90
3360;DHT22;1693;49.602;11.046;2023-03-07T07:32:09;3.80;99.90
3360;DHT22;1693;49.602;11.046;2023-03-07T07:34:36;3.90;99.90
3360;DHT22;1693;49.602;11.046;2023-03-07T07:37:04;4.00;99.90
3360;DHT22;1693;49.602;11.046;2023-03-07T07:39:32;3.90;99.90
3360;DHT22;1693;49.602;11.046;2023-03-07T07:41:59;4.00;99.90
3360;DHT22;1693;49.602;11.046;2023-03-07T07:44:28;4.00;99.90
3360;DHT22;1693;49.602;11.046;2023-03-07T07:46:56;4.00;99.90
3360;DHT22;1693;49.602;11.046;2023-03-07T07:49:23;4.10;99.90
3360;DHT22;1693;49.602;11.046;2023-03-07T07:51:50;4.10;99.90
3360;DHT22;1693;49.602;11.046;2023-03-07T07:54:17;4.10;99.90
3360;DHT22;1693;49.602;11.046;2023-03-07T07:56:46;4.00;99.90
3360;DHT22;1693;49.602;11.046;2023-03-07T07:59:13;4.00;99.90
3360;DHT22;1693;49.602;11.046;2023-03-07T08:01:40;4.00;99.90
3360;DHT22;1693;49.602;11.046;2023-03-07T08:04:08;4.00;99.90
3360;DHT22;1693;49.602;11.046;2023-03-07T08:06:36;4.00;99.90
3360;DHT22;1693;49.602;11.046;2023-03-07T08:09:17;4.00;99.90
3360;DHT22;1693;49.602;11.046;2023-03-07T08:11:45;4.10;99.90
3360;DHT22;1693;49.602;11.046;2023-03-07T08:14:13;4.10;99.90
3360;DHT22;1693;49.602;11.046;2023-03-07T08:16:39;4.10;99.90
3360;DHT22;1693;49.602;11.046;2023-03-07T08:19:07;4.10;99.90
3360;DHT22;1693;49.602;11.046;2023-03-07T08:21:35;4.20;99.90
3360;DHT22;1693;49.602;11.046;2023-03-07T08:24:02;4.20;99.90
3360;DHT22;1693;49.602;11.046;2023-03-07T08:26:30;4.20;99.90
3360;DHT22;1693;49.602;11.046;2023-03-07T08:28:58;4.30;99.90
3360;DHT22;1693;49.602;11.046;2023-03-07T08:31:25;4.30;99.90
3360;DHT22;1693;49.602;11.046;2023-03-07T08:33:55;4.40;99.90
3360;DHT22;1693;49.602;11.046;2023-03-07T08:36:23;4.50;99.90
3360;DHT22;1693;49.602;11.046;2023-03-07T08:38:51;4.50;99.90
3360;DHT22;1693;49.602;11.046;2023-03-07T08:41:19;4.50;99.90
3360;DHT22;1693;49.602;11.046;2023-03-07T08:43:46;4.50;99.90
3360;DHT22;1693;49.602;11.046;2023-03-07T08:46:14;4.60;99.90
3360;DHT22;1693;49.602;11.046;2023-03-07T08:48:41;4.70;99.90
3360;DHT22;1693;49.602;11.046;2023-03-07T08:51:11;4.70;99.90
3360;DHT22;1693;49.602;11.046;2023-03-07T08:53:39;4.80;99.90
3360;DHT22;1693;49.602;11.046;2023-03-07T08:56:08;4.90;99.90
3360;DHT22;1693;49.602;11.046;2023-03-07T08:58:36;5.00;99.90
3360;DHT22;1693;49.602;11.046;2023-03-07T09:01:04;5.00;99.90
3360;DHT22;1693;49.602;11.046;2023-03-07T09:03:33;5.10;99.90
3360;DHT22;1693;49.602;11.046;2023-03-07T09:06:03;5.20;99.90
3360;DHT22;1693;49.602;11.046;2023-03-07T09:08:30;5.10;99.90
3360;DHT22;1693;49.602;11.046;2023-03-07T09:10:58;5.20;99.90
3360;DHT22;1693;49.602;11.046;2023-03-07T09:13:28;5.30;99.90
3360;DHT22;1693;49.602;11.046;2023-03-07T09:15:55;5.50;99.90
3360;DHT22;1693;49.602;11.046;2023-03-07T09:18:22;5.60;99.90
3360;DHT22;1693;49.602;11.046;2023-03-07T09:21:10;5.70;99.90
3360;DHT22;1693;49.602;11.046;2023-03-07T09:23:37;5.90;99.90
3360;DHT22;1693;49.602;11.046;2023-03-07T09:26:05;6.00;99.90
3360;DHT22;1693;49.602;11.046;2023-03-07T09:28:32;6.10;99.90
3360;DHT22;1693;49.602;11.046;2023-03-07T09:30:59;6.20;99.90
3360;DHT22;1693;49.602;11.046;2023-03-07T09:33:26;6.30;99.90
3360;DHT22;1693;49.602;11.046;2023-03-07T09:35:54;6.30;99.90
3360;DHT22;1693;49.602;11.046;2023-03-07T09:38:21;6.40;99.90
3360;DHT22;1693;49.602;11.046;2023-03-07T09:40:48;6.50;99.90
3360;DHT22;1693;49.602;11.046;2023-03-07T09:43:18;6.50;99.90
3360;DHT22;1693;49.602;11.046;2023-03-07T09:45:56;6.40;99.90
3360;DHT22;1693;49.602;11.046;2023-03-07T09:48:56;6.40;99.90
3360;DHT22;1693;49.602;11.046;2023-03-07T09:51:36;6.40;99.90
3360;DHT22;1693;49.602;11.046;2023-03-07T09:54:12;6.50;99.90
3360;DHT22;1693;49.602;11.046;2023-03-07T09:56:47;6.50;99.90
3360;DHT22;1693;49.602;11.046;2023-03-07T09:59:18;6.80;99.90
3360;DHT22;1693;49.602;11.046;2023-03-07T10:01:51;6.70;99.90
3360;DHT22;1693;49.602;11.046;2023-03-07T10:04:28;6.70;99.90
3360;DHT22;1693;49.602;11.046;2023-03-07T10:07:01;6.80;99.90
3360;DHT22;1693;49.602;11.046;2023-03-07T10:09:29;7.00;99.90
3360;DHT22;1693;49.602;11.046;2023-03-07T10:12:14;7.00;99.90
3360;DHT22;1693;49.602;11.046;2023-03-07T10:15:09;7.00;99.90
3360;DHT22;1693;49.602;11.046;2023-03-07T10:17:50;6.80;99.90
3360;DHT22;1693;49.602;11.046;2023-03-07T10:20:27;6.80;99.90
3360;DHT22;1693;49.602;11.046;2023-03-07T10:23:03;6.80;99.90
3360;DHT22;1693;49.602;11.046;2023-03-07T10:25:33;6.70;99.90
3360;DHT22;1693;49.602;11.046;2023-03-07T10:28:18;6.50;99.90
3360;DHT22;1693;49.602;11.046;2023-03-07T10:30:49;6.60;99.90
3360;DHT22;1693;49.602;11.046;2023-03-07T10:33:18;6.80;99.90
3360;DHT22;1693;49.602;11.046;2023-03-07T10:35:51;7.30;99.90
3360;DHT22;1693;49.602;11.046;2023-03-07T10:38:29;7.60;99.90
3360;DHT22;1693;49.602;11.046;2023-03-07T10:41:00;8.00;99.90
3360;DHT22;1693;49.602;11.046;2023-03-07T10:43:31;7.70;99.90
3360;DHT22;1693;49.602;11.046;2023-03-07T10:46:02;8.00;99.90
3360;DHT22;1693;49.602;11.046;2023-03-07T10:48:34;7.90;99.90
3360;DHT22;1693;49.602;11.046;2023-03-07T10:51:07;8.00;99.90
3360;DHT22;1693;49.602;11.046;2023-03-07T10:53:38;8.00;99.90
3360;DHT22;1693;49.602;11.046;2023-03-07T10:56:11;8.30;99.90
3360;DHT22;1693;49.602;11.046;2023-03-07T10:58:38;8.60;99.90
3360;DHT22;1693;49.602;11.046;2023-03-07T11:01:16;9.20;99.90
3360;DHT22;1693;49.602;11.046;2023-03-07T11:03:46;9.40;99.90
3360;DHT22;1693;49.602;11.046;2023-03-07T11:06:40;9.20;99.90
3360;DHT22;1693;49.602;11.046;2023-03-07T11:09:22;8.40;99.90
3360;DHT22;1693;49.602;11.046;2023-03-07T11:11:54;8.00;99.90
3360;DHT22;1693;49.602;11.046;2023-03-07T11:14:22;7.60;99.90
3360;DHT22;1693;49.602;11.046;2023-03-07T11:16:54;7.70;99.90
3360;DHT22;1693;49.602;11.046;2023-03-07T11:19:40;7.70;99.90
3360;DHT22;1693;49.602;11.046;2023-03-07T11:22:20;7.80;99.90
3360;DHT22;1693;49.602;11.046;2023-03-07T11:24:54;7.70;99.90
3360;DHT22;1693;49.602;11.046;2023-03-07T11:27:25;7.50;99.90
3360;DHT22;1693;49.602;11.046;2023-03-07T11:30:18;7.40;99.90
3360;DHT22;1693;49.602;11.046;2023-03-07T11:35:57;7.40;99.90
3360;DHT22;1693;49.602;11.046;2023-03-07T11:38:45;7.50;99.90
3360;DHT22;1693;49.602;11.046;2023-03-07T11:41:21;7.40;99.90
3360;DHT22;1693;49.602;11.046;2023-03-07T11:43:59;7.30;99.90
3360;DHT22;1693;49.602;11.046;2023-03-07T11:46:37;7.20;99.90
3360;DHT22;1693;49.602;11.046;2023-03-07T11:49:16;7.00;99.90
3360;DHT22;1693;49.602;11.046;2023-03-07T11:51:59;7.00;99.90
3360;DHT22;1693;49.602;11.046;2023-03-07T11:54:32;7.20;99.90
3360;DHT22;1693;49.602;11.046;2023-03-07T11:57:18;7.10;99.90
3360;DHT22;1693;49.602;11.046;2023-03-07T12:03:19;7.30;99.30
3360;DHT22;1693;49.602;11.046;2023-03-07T12:06:32;7.20;99.10
3360;DHT22;1693;49.602;11.046;2023-03-07T12:09:25;7.30;99.40
3360;DHT22;1693;49.602;11.046;2023-03-07T12:12:15;7.30;99.30
3360;DHT22;1693;49.602;11.046;2023-03-07T12:14:50;7.40;98.80
3360;DHT22;1693;49.602;11.046;2023-03-07T12:17:33;7.20;98.80
3360;DHT22;1693;49.602;11.046;2023-03-07T12:20:26;7.30;98.70
3360;DHT22;1693;49.602;11.046;2023-03-07T12:23:13;7.10;98.40
3360;DHT22;1693;49.602;11.046;2023-03-07T12:25:47;7.00;98.90
3360;DHT22;1693;49.602;11.046;2023-03-07T12:28:22;7.00;98.40
3360;DHT22;1693;49.602;11.046;2023-03-07T12:31:01;7.00;98.20
3360;DHT22;1693;49.602;11.046;2023-03-07T12:33:43;7.00;97.90
3360;DHT22;1693;49.602;11.046;2023-03-07T12:36:20;6.90;97.90
3360;DHT22;1693;49.602;11.046;2023-03-07T12:38:51;6.70;98.20
3360;DHT22;1693;49.602;11.046;2023-03-07T12:41:28;6.60;98.50
3360;DHT22;1693;49.602;11.046;2023-03-07T12:44:04;6.50;98.80
3360;DHT22;1693;49.602;11.046;2023-03-07T12:46:37;6.60;98.80
3360;DHT22;1693;49.602;11.046;2023-03-07T12:49:12;6.50;98.60
3360;DHT22;1693;49.602;11.046;2023-03-07T12:51:45;6.40;98.60
3360;DHT22;1693;49.602;11.046;2023-03-07T12:54:19;6.30;98.00
3360;DHT22;1693;49.602;11.046;2023-03-07T12:56:53;6.40;97.90
3360;DHT22;1693;49.602;11.046;2023-03-07T12:59:22;6.20;97.90
3360;DHT22;1693;49.602;11.046;2023-03-07T13:01:54;6.20;97.40
3360;DHT22;1693;49.602;11.046;2023-03-07T13:04:29;6.30;97.40
3360;DHT22;1693;49.602;11.046;2023-03-07T13:07:04;6.30;97.20
3360;DHT22;1693;49.602;11.046;2023-03-07T13:09:33;6.30;97.40
3360;DHT22;1693;49.602;11.046;2023-03-07T13:12:17;6.30;97.60
3360;DHT22;1693;49.602;11.046;2023-03-07T13:14:50;6.40;97.70
3360;DHT22;1693;49.602;11.046;2023-03-07T13:20:40;6.50;97.20
3360;DHT22;1693;49.602;11.046;2023-03-07T13:23:26;6.30;97.00
3360;DHT22;1693;49.602;11.046;2023-03-07T13:26:05;6.50;97.40
3360;DHT22;1693;49.602;11.046;2023-03-07T13:28:44;6.70;96.90
3360;DHT22;1693;49.602;11.046;2023-03-07T13:34:40;7.20;95.80
3360;DHT22;1693;49.602;11.046;2023-03-07T13:37:47;7.40;95.40
3360;DHT22;1693;49.602;11.046;2023-03-07T13:40:23;7.70;94.60
3360;DHT22;1693;49.602;11.046;2023-03-07T13:42:50;8.20;94.00
3360;DHT22;1693;49.602;11.046;2023-03-07T13:45:50;8.20;92.70
3360;DHT22;1693;49.602;11.046;2023-03-07T13:51:20;7.90;91.80
3360;DHT22;1693;49.602;11.046;2023-03-07T13:53:50;7.80;91.90
3360;DHT22;1693;49.602;11.046;2023-03-07T13:56:22;7.70;91.80
3360;DHT22;1693;49.602;11.046;2023-03-07T13:58:56;7.80;91.90
3360;DHT22;1693;49.602;11.046;2023-03-07T14:01:28;7.80;91.40
3360;DHT22;1693;49.602;11.046;2023-03-07T14:04:03;7.70;91.90
3360;DHT22;1693;49.602;11.046;2023-03-07T14:06:36;7.70;91.90
3360;DHT22;1693;49.602;11.046;2023-03-07T14:09:04;7.70;92.00
3360;DHT22;1693;49.602;11.046;2023-03-07T14:11:39;7.80;92.10
3360;DHT22;1693;49.602;11.046;2023-03-07T14:14:47;7.70;91.80
3360;DHT22;1693;49.602;11.046;2023-03-07T14:17:41;7.40;92.30
3360;DHT22;1693;49.602;11.046;2023-03-07T14:20:17;7.20;92.60
3360;DHT22;1693;49.602;11.046;2023-03-07T14:23:01;7.50;92.70
3360;DHT22;1693;49.602;11.046;2023-03-07T14:25:33;7.40;91.80
3360;DHT22;1693;49.602;11.046;2023-03-07T14:28:18;8.00;92.00
3360;DHT22;1693;49.602;11.046;2023-03-07T14:30:52;8.40;91.80
3360;DHT22;1693;49.602;11.046;2023-03-07T14:33:20;9.00;90.90
3360;DHT22;1693;49.602;11.046;2023-03-07T14:35:47;8.60;89.70
3360;DHT22;1693;49.602;11.046;2023-03-07T14:38:20;8.30;89.50
3360;DHT22;1693;49.602;11.046;2023-03-07T14:41:00;7.90;89.60
3360;DHT22;1693;49.602;11.046;2023-03-07T14:43:39;8.40;90.20
3360;DHT22;1693;49.602;11.046;2023-03-07T14:46:18;9.70;89.00
3360;DHT22;1693;49.602;11.046;2023-03-07T14:48:54;9.90;90.00
3360;DHT22;1693;49.602;11.046;2023-03-07T14:51:27;9.20;85.40
3360;DHT22;1693;49.602;11.046;2023-03-07T14:54:04;8.50;86.90
3360;DHT22;1693;49.602;11.046;2023-03-07T14:56:37;8.20;87.30
3360;DHT22;1693;49.602;11.046;2023-03-07T14:59:05;7.70;88.60
3360;DHT22;1693;49.602;11.046;2023-03-07T15:01:34;7.60;89.10
3360;DHT22;1693;49.602;11.046;2023-03-07T15:04:07;7.50;89.70
3360;DHT22;1693;49.602;11.046;2023-03-07T15:06:44;7.40;89.90
3360;DHT22;1693;49.602;11.046;2023-03-07T15:09:13;7.10;90.40
3360;DHT22;1693;49.602;11.046;2023-03-07T15:11:47;7.10;90.50
3360;DHT22;1693;49.602;11.046;2023-03-07T15:14:18;7.20;90.90
3360;DHT22;1693;49.602;11.046;2023-03-07T15:16:48;7.50;90.90
3360;DHT22;1693;49.602;11.046;2023-03-07T15:19:34;7.70;90.60
3360;DHT22;1693;49.602;11.046;2023-03-07T15:22:11;7.80;90.60
3360;DHT22;1693;49.602;11.046;2023-03-07T15:24:47;8.80;90.30
3360;DHT22;1693;49.602;11.046;2023-03-07T15:27:20;9.90;87.40
3360;DHT22;1693;49.602;11.046;2023-03-07T15:29:49;9.80;85.50
3360;DHT22;1693;49.602;11.046;2023-03-07T15:32:40;9.40;85.60
3360;DHT22;1693;49.602;11.046;2023-03-07T15:35:15;8.90;86.30
3360;DHT22;1693;49.602;11.046;2023-03-07T15:37:53;8.20;87.70
3360;DHT22;1693;49.602;11.046;2023-03-07T15:40:31;7.90;88.80
3360;DHT22;1693;49.602;11.046;2023-03-07T15:43:14;7.80;89.60
3360;DHT22;1693;49.602;11.046;2023-03-07T15:45:43;7.80;89.80
3360;DHT22;1693;49.602;11.046;2023-03-07T15:48:19;7.50;90.00
3360;DHT22;1693;49.602;11.046;2023-03-07T15:50:52;7.30;90.40
3360;DHT22;1693;49.602;11.046;2023-03-07T15:53:24;7.00;90.90
3360;DHT22;1693;49.602;11.046;2023-03-07T15:55:58;6.80;91.30
3360;DHT22;1693;49.602;11.046;2023-03-07T15:58:26;7.00;91.50
3360;DHT22;1693;49.602;11.046;2023-03-07T16:01:04;6.90;91.60
3360;DHT22;1693;49.602;11.046;2023-03-07T16:03:31;6.80;91.90
3360;DHT22;1693;49.602;11.046;2023-03-07T16:06:00;6.70;92.00
3360;DHT22;1693;49.602;11.046;2023-03-07T16:08:29;6.80;92.20
3360;DHT22;1693;49.602;11.046;2023-03-07T16:11:00;6.70;92.40
3360;DHT22;1693;49.602;11.046;2023-03-07T16:13:30;6.60;92.70
3360;DHT22;1693;49.602;11.046;2023-03-07T16:16:03;6.50;92.90
3360;DHT22;1693;49.602;11.046;2023-03-07T16:18:31;6.50;92.80
3360;DHT22;1693;49.602;11.046;2023-03-07T16:20:59;6.40;93.10
3360;DHT22;1693;49.602;11.046;2023-03-07T16:23:26;6.30;93.10
3360;DHT22;1693;49.602;11.046;2023-03-07T16:25:57;6.30;93.40
3360;DHT22;1693;49.602;11.046;2023-03-07T16:28:26;6.30;93.60
3360;DHT22;1693;49.602;11.046;2023-03-07T16:30:53;6.20;93.40
3360;DHT22;1693;49.602;11.046;2023-03-07T16:33:20;6.10;93.60
3360;DHT22;1693;49.602;11.046;2023-03-07T16:35:47;6.10;93.80
3360;DHT22;1693;49.602;11.046;2023-03-07T16:38:14;6.10;93.90
3360;DHT22;1693;49.602;11.046;2023-03-07T16:40:42;6.10;94.10
3360;DHT22;1693;49.602;11.046;2023-03-07T16:43:28;6.10;94.20
3360;DHT22;1693;49.602;11.046;2023-03-07T16:45:59;6.00;94.20
3360;DHT22;1693;49.602;11.046;2023-03-07T16:48:26;6.00;94.40